createdAt,value
2022-08-14T00:03:29.188Z,4.60
2022-08-14T00:19:05.480Z,4.40
2022-08-14T00:33:59.065Z,4.10
2022-08-14T00:49:21.198Z,5.00
2022-08-14T01:04:38.466Z,5.40
2022-08-14T01:20:08.568Z,4.90
2022-08-14T01:36:03.700Z,4.80
2022-08-14T01:50:55.689Z,5.00
2022-08-14T02:06:32.578Z,5.00
2022-08-14T02:21:24.375Z,4.80
2022-08-14T02:37:03.800Z,5.00
2022-08-14T02:51:55.278Z,4.70
2022-08-14T03:07:07.373Z,4.80
2022-08-14T03:22:17.711Z,5.00
2022-08-14T03:37:51.543Z,5.00
2022-08-14T03:52:47.869Z,5.60
2022-08-14T04:08:08.511Z,5.50
2022-08-14T04:23:29.107Z,4.90
2022-08-14T04:38:55.738Z,5.80
2022-08-14T04:54:01.540Z,6.40
2022-08-14T05:09:05.706Z,6.30
2022-08-14T05:24:17.572Z,10.30
2022-08-14T05:39:23.124Z,5.10
2022-08-14T05:54:27.517Z,5.10
2022-08-14T06:09:35.400Z,4.60
2022-08-14T06:24:44.119Z,4.50
2022-08-14T06:39:48.365Z,4.60
2022-08-14T06:54:52.774Z,4.60
2022-08-14T07:09:55.847Z,4.10
2022-08-14T07:24:59.404Z,3.60
2022-08-14T07:40:06.694Z,3.90
2022-08-14T07:55:15.354Z,5.00
2022-08-14T08:11:02.563Z,5.60
2022-08-14T08:25:56.546Z,6.70
2022-08-14T08:41:01.246Z,6.70
2022-08-14T08:56:04.828Z,6.00
2022-08-14T09:11:19.719Z,6.10
2022-08-14T09:26:28.558Z,6.30
2022-08-14T09:42:21.190Z,7.70
2022-08-14T10:12:45.403Z,6.60
2022-08-14T10:43:00.683Z,6.60
2022-08-14T10:58:04.687Z,5.90
2022-08-14T11:13:09.279Z,6.50
2022-08-14T11:28:19.491Z,6.70
2022-08-14T11:43:29.614Z,7.20
2022-08-14T11:58:37.331Z,7.50
2022-08-14T12:13:44.409Z,8.00
2022-08-14T12:29:16.376Z,7.80
2022-08-14T12:44:30.419Z,6.90
2022-08-14T12:59:37.273Z,7.30
2022-08-14T13:14:50.639Z,6.70
2022-08-14T13:29:59.211Z,7.70
2022-08-14T13:45:04.655Z,7.80
2022-08-14T14:00:14.587Z,7.50
2022-08-14T14:15:22.886Z,6.60
2022-08-14T14:30:51.723Z,5.70
2022-08-14T14:45:57.890Z,7.60
2022-08-14T15:01:03.890Z,5.10
2022-08-14T15:16:12.933Z,5.80
2022-08-14T15:31:16.636Z,5.80
2022-08-14T15:46:25.376Z,7.70
2022-08-14T16:01:54.087Z,6.50
2022-08-14T16:17:00.353Z,18.80
2022-08-14T16:47:34.763Z,9.50
2022-08-14T17:17:57.790Z,17.40
2022-08-14T17:33:13.787Z,11.60
2022-08-14T17:49:14.970Z,17.90
2022-08-14T18:03:58.943Z,11.90
2022-08-14T18:19:12.178Z,12.80
2022-08-14T18:34:32.087Z,11.60
2022-08-14T18:50:01.512Z,13.90
2022-08-14T19:05:09.434Z,11.80
2022-08-14T19:20:19.010Z,12.30
2022-08-14T19:35:48.467Z,16.50
2022-08-14T20:06:10.892Z,24.80
2022-08-14T20:21:17.233Z,20.30
2022-08-14T20:36:29.284Z,16.40
2022-08-14T20:52:04.810Z,16.20
2022-08-14T21:07:33.451Z,18.00
2022-08-14T21:22:38.177Z,15.80
2022-08-14T21:37:46.002Z,16.00
2022-08-14T21:53:01.024Z,13.60
2022-08-14T22:08:06.869Z,14.40
2022-08-14T22:23:12.788Z,13.10
2022-08-14T22:38:36.550Z,14.60
2022-08-14T22:53:40.204Z,15.10
2022-08-14T23:08:58.527Z,16.20
2022-08-14T23:24:05.962Z,15.60
2022-08-14T23:39:12.197Z,16.30
2022-08-14T23:54:48.741Z,15.50
